Portada
METAR-TAF:

METAR-TAF

Aeroports :

Columbus, Mississipí, Estats Units d'Amèrica

latitud: 33-39N, longitud: 088-27W, altitud: 67 m

Observació

L'informe es va fer fa 21 minuts, a les 12:56 UTC
Vent 5 kt del Nord
Temperatura 21°C
Humitat 83%
Pressió 1020 hPa
Visibilitat: 16.1 km
Cel clar

METAR: KCBM 301256Z AUTO 01005KT 10SM CLR 21/18 A3011 RMK AO2 SLP197 T02140182 $

Hora: 08:17 (13:17 UTC)

Pronòstic

L'informe es va fer fa 12 hores i 17 minuts, a les 01:00 UTC
Pronòstic vàlid del 30 a les 01 UTC al 30 a les 23 UTC
Vent 6 kt amb direcció variable
Visibilitat: 0109 m
Escasses núvols a una alçada de 7000 ft

TAF: KCBM 300100Z 3001/3023 VRB06KT 9999 FEW070 QNH2994INS TX28/3001Z TN18/3011Z LAST NO AMDS AFT 3001 NEXT 0109

Observacions i pronòstics meteorològics de més de 4000 aeroports (METAR i TAF).

Les estacions disponibles són els punts grocs i vermells al mapa.

Posi el ratolí al punt desitjat per veure el nom de l'estació.

Feu clic per veure les observacions i els pronòstics meteorològics.

Per canviar el mapa: feu clic els botons verds amb una creu de color negre per apropar; al botó verd amb un guió per allunyar la imatge; o en les fletxes verdes per a mapes adjacents.


METAR-TAF: